Weather observations for the past three days for
Major Samuel B Cornelius Field Airport
Imperial (Metric)
Date Time (cdt) Wind (mph) Vis. (mi.) Weather Sky Cond. Temperature (ºF) Relative Humidity Wind Chill (°F) Heat Index (°F) Pressure Precipitation (in)
Air Dwpt 6 hour altimeter (in) sea level (mb) 1 hr 3 hr 6 hr
Max. Min.
06 12:35 E 14 10.00 Overcast OVC026 47.3 33.4 59% 42 30.11 0.0
06 12:15 E 13 10.00 Overcast OVC026 46 33.1 61% 41 30.12 0.0
06 11:55 E 13 10.00 Overcast OVC026 45.9 33.3 62% 41 30.11 0.0
06 11:35 E 13 10.00 Overcast OVC026 45.7 33.4 62% 40 30.1 0.0
06 11:15 E 15 10.00 Overcast OVC024 45.3 33.8 64% 39 30.1 0.0
06 10:55 E 12 10.00 Overcast BKN022 OVC027 44.6 34.2 67% 39 30.09 0.0
06 10:35 E 13 G 18 10.00 Overcast SCT018 OVC026 44.6 34.5 68% 39 30.08 0.0
06 10:15 E 14 10.00 Overcast SCT016 OVC024 44.2 35.1 70% 38 30.07 0.0
06 09:55 E 15 10.00 Overcast SCT016 OVC024 43.5 35.1 72% 37 30.07 0.0
06 09:35 E 13 10.00 Overcast OVC022 43 35.4 75% 37 30.06 0.0
06 09:15 E 14 10.00 Overcast SCT014 OVC022 42.1 34.9 76% 35 30.08 0.0
06 08:55 E 12 10.00 Overcast BKN014 OVC020 42.1 35.2 77% 36 30.07 0.0
06 08:35 E 15 10.00 Overcast OVC012 41.9 35.4 78% 35 30.07 0.0
06 08:15 E 20 10.00 Overcast OVC010 41.5 36 81% 33 30.04 0.0
06 07:55 E 15 10.00 Overcast OVC010 41.4 36.3 82% 34 30.06 0.0
06 07:35 E 16 10.00 Overcast OVC008 40.8 36.7 85% 33 30.05 0.0
06 06:55 E 12 10.00 Overcast OVC008 40.3 37 46.4 40.3 88% 34 30.06 0.0
06 06:35 E 17 10.00 Overcast OVC008 40.8 36.7 85% 33 30.04 0.0
06 06:15 E 15 10.00 Overcast OVC008 41.2 37 85% 34 30.03 0.0
06 05:55 E 16 10.00 Overcast OVC010 41.7 37 84% 34 30.01 0.0
06 05:35 E 16 10.00 Overcast SCT012 OVC020 42.1 36.9 82% 35 30.01 0.0
06 05:15 E 15 10.00 Overcast OVC020 42.6 36.5 79% 36 30.01 0.0
06 04:55 E 15 G 18 10.00 Overcast SCT016 BKN021 OVC027 43.5 35.6 74% 37 30.01 0.0
06 04:35 E 8 10.00 Overcast OVC027 44.1 33.8 67% 40 30 0.0
06 04:15 E 8 10.00 Overcast OVC027 44.2 33.6 66% 40 29.99 0.0
06 03:55 E 14 10.00 Overcast OVC027 44.4 32.9 64% 38 29.97 0.0
06 03:35 E 10 10.00 Overcast OVC029 44.6 32.9 64% 40 29.99 0.0
06 03:15 E 10 10.00 Overcast OVC029 44.6 32.5 63% 40 29.98 0.0
06 02:55 E 14 10.00 Overcast OVC029 44.6 32.9 64% 39 29.98 0.0
06 02:35 E 13 10.00 Overcast OVC029 45.1 32.4 61% 40 30 0.0
06 02:15 E 12 10.00 Overcast OVC033 44.8 32.7 63% 40 29.99 0.0
06 01:55 E 14 10.00 Partly Cloudy SCT031 SCT037 SCT060 44.8 31.8 61% 39 30 0.0
06 01:35 E 20 10.00 Partly Cloudy SCT029 SCT060 SCT120 45.1 32.7 62% 38 29.98 0.0
06 01:15 E 18 10.00 Mostly Cloudy SCT025 BKN120 44.6 33.8 66% 37 29.96 0.0
06 00:55 E 18 10.00 Overcast OVC025 46.6 36.1 52.2 46.4 67% 40 29.97 0.0
06 00:35 E 17 10.00 Overcast OVC027 47.1 36.9 68% 41 29.97 0.0
06 00:15 E 12 10.00 Overcast OVC027 47.5 36.9 67% 43 29.98 0.0
05 23:55 E 10 10.00 Overcast OVC027 47.7 36.3 65% 44 29.99 0.0
05 23:35 E 12 10.00 Overcast OVC030 47.8 36.1 64% 43 29.97 0.0
05 23:15 E 14 10.00 Overcast OVC030 48 36.1 64% 43 29.94 0.0
05 22:55 E 14 10.00 Overcast OVC030 48.4 35.6 61% 43 29.93 0.0
05 22:35 E 13 10.00 Overcast OVC030 48.2 35.6 62% 43 29.91 0.0
05 22:15 E 12 10.00 Overcast OVC032 48.2 35.4 61% 44 29.91 0.0
05 21:55 E 14 10.00 Overcast OVC032 48.6 35.1 60% 44 29.9 0.0
05 21:35 E 15 10.00 Overcast OVC032 49.3 35.2 59% 44 29.9 0.0
05 21:15 E 15 10.00 Overcast OVC032 49.6 35.4 58% 45 29.9 0.0
05 20:55 E 13 10.00 Overcast OVC032 49.8 35.2 57% 45 29.91 0.0
05 20:35 E 14 10.00 Overcast OVC032 50 35.1 57% 45 29.9 0.0
05 20:15 E 15 10.00 Overcast OVC032 50.4 34.9 55% 29.9 0.0
05 19:55 NE 17 10.00 Overcast OVC032 50.7 35.2 56% 29.88 0.0
05 19:35 E 20 10.00 Overcast OVC034 51.1 34.9 54% 29.88 0.0
05 19:15 E 17 10.00 Overcast OVC034 51.8 34.7 52% 29.88 0.0
05 18:55 NE 15 10.00 Overcast OVC034 52.2 34.5 55.4 52 51% 29.88 0.0
05 18:35 NE 16 10.00 Overcast OVC036 52.7 34.3 50% 29.89 0.0
05 18:15 E 16 10.00 Overcast OVC038 53.6 33.6 47% 29.89 0.0
05 17:55 NE 15 10.00 Overcast OVC040 53.8 33.6 47% 29.89 0.0
05 17:35 E 15 10.00 Overcast OVC038 53.4 32.9 46% 29.89 0.0
05 17:15 E 10 G 23 10.00 Overcast OVC038 54.3 33.3 45% 29.89 0.0
05 16:55 NE 13 G 20 10.00 Overcast OVC038 54.1 32.7 44% 29.88 0.0
05 16:35 NE 12 10.00 Overcast OVC036 53.8 33.1 46% 29.88 0.0
05 16:15 NE 16 G 20 10.00 Overcast OVC036 54.1 32.9 45% 29.88 0.0
05 15:55 NE 16 G 22 10.00 Overcast OVC036 54 32.7 45% 29.88 0.0
05 15:35 NE 16 10.00 Overcast OVC036 54 33.8 47% 29.89 0.0
05 15:15 NE 17 10.00 Overcast OVC038 54.1 32.7 44% 29.89 0.0
05 14:55 NE 16 10.00 Overcast OVC038 54.1 32.7 44% 29.9 0.0
05 14:35 NE 16 10.00 Overcast OVC038 54 32.9 45% 29.91 0.0
05 14:15 NE 15 10.00 Overcast OVC038 54.1 32.7 44% 29.9 0.0
05 13:55 NE 18 G 22 10.00 Overcast OVC038 54.3 32.7 44% 29.91 0.0
05 13:35 NE 16 G 23 10.00 Overcast OVC038 54.3 32.9 44% 29.9 0.0
05 13:15 NE 15 10.00 Overcast OVC036 54.1 32.7 44% 29.91 0.0
05 12:55 NE 16 10.00 Overcast OVC034 53.6 32.5 54.5 52.3 45% 29.91 0.0
05 12:35 NE 21 10.00 Overcast and Breezy OVC034 53.8 32.7 45% 29.91 0.0
05 12:15 NE 22 10.00 Overcast and Breezy OVC034 53.8 32.7 45% 29.9 0.0
05 11:55 NE 18 10.00 Overcast OVC036 54.1 32.9 45% 29.9 0.0
05 11:35 NE 18 G 24 10.00 Overcast OVC036 53.8 32.7 45% 29.91 0.0
05 11:15 NE 18 10.00 Overcast OVC034 53.6 32.5 45% 29.9 0.0
05 10:55 NE 17 G 26 10.00 Overcast OVC034 53.2 32.4 45% 29.9 0.0
05 10:15 NE 21 G 28 10.00 Overcast and Breezy OVC030 53.1 32 45% 29.88 0.0
05 09:55 NE 22 G 28 10.00 Overcast and Breezy OVC030 52.5 32 46% 29.87 0.0
05 09:35 NE 18 10.00 Overcast OVC028 52.7 32.4 46% 29.88 0.0
05 09:15 NE 24 G 29 10.00 Overcast and Breezy OVC028 52.7 32.4 46% 29.87 0.0
05 08:55 N 22 10.00 Overcast and Breezy OVC028 53.2 32.7 46% 29.85 0.0
05 08:35 NE 26 G 36 10.00 Overcast and Windy OVC028 53.1 32.5 46% 29.85 0.0
05 08:15 NE 23 G 32 10.00 Overcast and Breezy OVC026 52.9 32.9 47% 29.83 0.0
05 07:55 NE 25 G 30 10.00 Overcast and Breezy OVC026 52.9 32.9 47% 29.82 0.0
05 07:35 NE 25 G 33 10.00 Overcast and Breezy OVC024 52.9 32.5 46% 29.8 0.0
05 07:15 NE 24 G 30 10.00 Overcast and Breezy OVC024 53.2 32.7 46% 29.78 0.0
05 06:55 NE 24 G 32 10.00 Overcast and Breezy OVC026 52.9 32.4 71.8 52.7 46% 29.77 0.0
05 06:35 N 24 G 32 10.00 Overcast and Breezy OVC028 52.7 32.2 46% 29.76 0.0
05 06:15 N 25 G 33 10.00 Overcast and Breezy OVC028 53.6 32 44% 29.76 0.0
05 05:55 N 32 G 38 10.00 Overcast and Windy OVC028 53.4 32.9 46% 29.75 0.0
05 05:35 N 29 G 36 10.00 Mostly Cloudy and Windy BKN028 53.6 33.8 47% 29.74 0.0
05 05:15 N 30 G 37 10.00 Mostly Cloudy and Windy BKN026 57.2 35.6 44% 29.72 0.0
05 04:55 N 26 G 33 10.00 Overcast and Windy OVC026 57.9 36 44% 29.72 0.0
05 04:35 N 25 10.00 Overcast and Breezy OVC024 58.1 37.6 47% 29.7 0.0
05 04:15 N 28 G 33 10.00 Partly Cloudy and Windy SCT024 58.6 41.4 53% 29.68 0.0
05 03:55 N 20 10.00 Fair CLR 59.5 44.1 57% 29.66 0.0
05 03:35 N 18 10.00 Fair CLR 61.2 45.9 57% 29.63 0.0
05 03:15 N 17 G 21 10.00 Fair CLR 60.1 38.5 45% 29.62 0.0
05 02:55 NW 14 10.00 Fair CLR 62.2 30.7 31% 29.6 0.0
05 02:35 W 16 10.00 Fair CLR 65.3 26.8 23% 29.59 0.0
05 02:15 W 17 10.00 Fair CLR 67.5 22.3 18% 29.59 0.0
05 01:55 W 20 10.00 Fair CLR 70.2 21.4 16% 29.58 0.0
05 01:35 W 17 G 25 10.00 Fair CLR 70.9 20.5 15% 29.57 0.0
05 01:15 SW 17 G 23 10.00 Fair CLR 70.3 20.8 15% 29.57 0.0
05 00:35 SW 12 10.00 Fair CLR 65.7 23.4 20% 29.6 0.0
05 00:15 SW 13 10.00 Fair CLR 64.8 24.4 22% 29.6 0.0
04 23:55 SW 13 10.00 Fair CLR 63.3 25.5 24% 29.6 0.0
04 23:15 SW 10 10.00 Fair CLR 63.9 29.5 27% 29.6 0.0
04 22:55 SW 10 10.00 Fair CLR 66.9 30 25% 29.6 0.0
04 22:35 SW 10 10.00 Fair CLR 66.6 33.4 29% 29.6 0.0
04 22:15 SW 9 10.00 Fair CLR 65.8 35.6 33% 29.6 0.0
04 21:55 SW 8 10.00 Fair CLR 69.1 34.9 28% 29.6 0.0
04 21:35 SW 3 10.00 Fair CLR 69.4 32.7 26% 29.59 0.0
04 21:15 S 6 10.00 Fair CLR 71.2 35.2 27% 29.59 0.0
04 20:55 SW 8 10.00 Fair CLR 72.5 34.3 25% 29.59 0.0
04 20:35 SW 8 10.00 Fair CLR 73.2 35.1 25% 29.59 0.0
04 20:15 SW 7 10.00 Fair CLR 78.1 31.1 18% 77 29.59 0.0
04 19:55 SW 12 10.00 Fair CLR 82 30.4 15% 80 29.59 0.0
04 19:35 W 13 10.00 Fair CLR 83.3 30.2 15% 81 29.6 0.0
04 19:15 W 14 10.00 Fair CLR 83.8 28.2 13% 81 29.6 0.0
04 18:55 W 14 10.00 Fair CLR 84.2 29.5 89.6 84 14% 81 29.61 0.0
04 18:35 W 17 G 28 10.00 Fair CLR 85.1 29.3 13% 82 29.61 0.0
04 18:15 W 21 G 25 10.00 Fair and Breezy CLR 86 30.2 13% 83 29.61 0.0
04 17:55 W 13 10.00 Fair CLR 85.1 30.6 14% 82 29.61 0.0
04 17:35 SW 20 G 25 10.00 Fair CLR 0 0 0% 29.62 0.0
04 17:15 W 18 G 24 10.00 Fair CLR 86 30.2 13% 83 29.62 0.0
04 16:55 W 16 10.00 Fair CLR 85.5 30.9 14% 82 29.62 0.0
04 16:35 SW 22 G 29 10.00 Fair and Breezy CLR 0 0 0% 29.63 0.0
04 16:15 W 22 G 31 10.00 Fair and Breezy CLR 87.8 30.2 13% 84 29.63 0.0
04 15:55 W 18 G 31 10.00 Fair CLR 0 0 0% 29.64 0.0
04 15:35 SW 21 G 26 10.00 Partly Cloudy and Breezy SCT120 0 0 0% 29.64 0.0
04 14:55 W 18 10.00 Partly Cloudy SCT120 88.9 31.3 13% 85 29.66 0.0
04 14:35 W 23 G 30 10.00 Fair and Breezy CLR 87.8 30.2 13% 84 29.67 0.0
04 14:15 W 23 G 26 10.00 Fair and Breezy CLR 89.6 32 13% 86 29.67 0.0
04 13:55 W 15 G 22 10.00 Fair CLR 89.6 32 13% 86 29.67 0.0
04 13:35 SW 12 G 47 10.00 Partly Cloudy SCT120 87.8 30.2 13% 84 29.69 0.0
04 13:15 W 23 G 28 10.00 Fair and Breezy CLR 87.8 28.4 12% 84 29.71 0.0
04 12:55 W 15 G 20 10.00 Fair CLR 87.4 27.7 88.2 52.9 11% 84 29.72 0.0
04 12:35 W 13 G 20 10.00 Fair CLR 86.9 27 11% 83 29.72 0.0
04 12:15 W 15 10.00 Fair CLR 85.8 25.3 11% 83 29.73 0.0
04 11:55 W 13 10.00 Fair CLR 85.3 27.3 12% 82 29.74 0.0
04 11:35 W 12 10.00 Fair CLR 84.2 29.1 13% 81 29.74 0.0
04 11:15 W 8 10.00 Fair CLR 82.2 31.5 16% 80 29.75 0.0
04 10:55 W 10 10.00 Fair CLR 79.7 31.5 17% 78 29.76 0.0
04 10:35 W 13 10.00 Fair CLR 78.4 31.3 18% 78 29.75 0.0
04 10:15 W 14 10.00 Fair CLR 76.8 31.1 19% 77 29.76 0.0
04 09:55 NW 17 10.00 Fair CLR 75.4 31.5 20% 76 29.75 0.0
04 09:35 NW 10 10.00 Fair CLR 71.6 33.8 25% 29.75 0.0
04 09:15 NW 7 10.00 Fair CLR 68.5 34.2 28% 29.75 0.0
04 08:55 W 10 10.00 Fair CLR 64.8 36 34% 29.75 0.0
04 08:35 W 14 10.00 Fair CLR 62.4 35.6 37% 29.75 0.0
04 08:15 W 9 10.00 Fair CLR 59.7 36 41% 29.75 0.0
04 07:55 SW 15 10.00 Fair CLR 58.1 37.2 46% 29.74 0.0
04 07:35 W 10 10.00 Fair CLR 56.1 38.7 52% 29.73 0.0
04 07:15 W 8 10.00 Fair CLR 55.2 40.3 57% 29.73 0.0
04 06:55 SW 9 10.00 Fair CLR 52.9 41.2 62.1 52.9 65% 29.73 0.0
04 06:35 SW 9 10.00 Fair CLR 53.6 41.4 63% 29.73 0.0
04 06:15 SW 10 10.00 Fair CLR 53.6 41.2 63% 29.73 0.0
04 05:55 SW 12 10.00 Fair CLR 55.8 41.4 59% 29.73 0.0
04 05:35 SW 14 10.00 Fair CLR 56.7 41.5 57% 29.73 0.0
04 05:15 S 13 10.00 Fair CLR 57 41.2 56% 29.73 0.0
04 04:55 S 14 10.00 Fair CLR 57.6 40.8 54% 29.74 0.0
04 04:35 S 12 10.00 Fair CLR 57.7 40.5 53% 29.74 0.0
04 04:15 S 14 10.00 Fair CLR 58.5 40.1 51% 29.76 0.0
04 03:55 S 16 10.00 Fair CLR 59.5 39.7 48% 29.76 0.0
04 03:35 S 16 10.00 Fair CLR 60.6 39.6 46% 29.76 0.0
04 03:15 S 16 10.00 Fair CLR 61.9 40.5 46% 29.77 0.0
04 02:55 S 15 10.00 Fair CLR 60.3 38.8 45% 29.78 0.0
04 02:35 S 16 10.00 Fair CLR 60.4 38.1 44% 29.78 0.0
04 02:15 S 16 10.00 Fair CLR 60.4 37.2 42% 29.79 0.0
04 01:55 S 16 10.00 Fair CLR 61 36.7 41% 29.81 0.0
04 01:35 S 18 10.00 Fair CLR 61.9 36.7 39% 29.81 0.0
04 01:15 S 17 G 25 10.00 Fair CLR 61.7 36 38% 29.82 0.0
04 00:55 S 16 10.00 Fair CLR 62.6 34.5 81.9 62.2 35% 29.82 0.0
04 00:35 S 17 10.00 Fair CLR 63.3 34 34% 29.82 0.0
04 00:15 S 17 10.00 Fair CLR 62.6 33.6 34% 29.82 0.0
03 23:55 S 15 10.00 Fair CLR 64.2 33.4 32% 29.83 0.0
03 23:35 S 16 G 21 10.00 Fair CLR 66.6 33.6 29% 29.83 0.0
03 23:15 S 18 10.00 Fair CLR 67.3 33.6 29% 29.83 0.0
03 22:55 S 16 10.00 Fair CLR 67.3 33.1 28% 29.83 0.0
03 22:35 S 16 10.00 Fair CLR 65.5 32 29% 29.83 0.0
03 22:15 S 16 10.00 Fair CLR 67.5 30.4 25% 29.83 0.0
03 21:55 S 17 10.00 Fair CLR 68.9 29.3 23% 29.82 0.0
03 21:35 S 17 10.00 Fair CLR 70 29.7 22% 29.82 0.0
03 21:15 S 17 10.00 Fair CLR 71.1 29.3 21% 29.82 0.0
03 20:55 S 16 10.00 Fair CLR 72.3 27.9 19% 29.81 0.0
03 20:35 S 16 10.00 Fair CLR 74.1 28.8 19% 29.82 0.0
03 20:15 S 16 10.00 Fair CLR 76.1 29.8 18% 76 29.82 0.0
03 19:55 S 14 10.00 Fair CLR 78.8 29.5 16% 78 29.82 0.0
03 19:35 SW 16 G 21 10.00 Fair CLR 80.2 24.1 12% 78 29.82 0.0
03 19:15 SW 14 10.00 Fair CLR 79.9 24.8 13% 78 29.83 0.0
03 18:55 SW 18 10.00 Fair CLR 82.4 26.4 85.6 77.2 13% 80 29.83 0.0
03 18:35 SW 17 G 24 10.00 Fair CLR 0 0 0% 29.83 0.0
03 18:15 SW 18 G 33 10.00 Fair CLR 83.5 26.8 13% 81 29.83 0.0
03 17:55 SW 21 G 26 10.00 Fair and Breezy CLR 84.2 28.4 13% 81 29.84 0.0
03 17:35 S 20 G 32 10.00 Fair CLR 83.1 25.3 12% 80 29.85 0.0
03 17:15 SW 21 G 26 10.00 Fair and Breezy CLR 84.4 25.7 12% 81 29.85 0.0
03 16:55 SW 17 G 25 10.00 Fair CLR 0 0 0% 29.86 0.0
03 16:35 SW 22 G 29 10.00 Fair and Breezy CLR 84.2 24.8 11% 81 29.87 0.0
03 16:15 SW 22 G 31 10.00 Fair and Breezy CLR 82.4 24.8 12% 80 29.89 0.0
03 15:55 SW 18 10.00 Fair CLR 82.4 26.6 13% 80 29.9 0.0
03 15:35 SW 18 G 29 10.00 Fair CLR 84.2 27.1 12% 81 29.92 0.0
03 15:15 SW 22 G 35 10.00 Fair and Breezy CLR 82.4 28.4 14% 80 29.93 0.0
03 14:55 S 21 G 32 10.00 Fair and Breezy CLR 81.5 28.9 15% 79 29.94 0.0
03 14:35 SW 21 G 29 10.00 Fair and Breezy CLR 81.7 28.8 14% 79 29.95 0.0
03 14:15 SW 21 G 29 10.00 Fair and Breezy CLR 80.6 28.4 15% 79 29.96 0.0
03 13:55 SW 22 G 28 10.00 Fair and Breezy CLR 79.9 29.7 16% 78 29.97 0.0
03 13:35 SW 17 G 26 10.00 Fair CLR 78.4 30.7 17% 78 29.99 0.0
03 13:15 SW 16 G 26 10.00 Fair CLR 79 31.1 17% 78 30 0.0
03 12:55 SW 18 10.00 Fair CLR 78.1 31.6 79 44.6 18% 77 30.01 0.0
Date Time (cdt) Wind (mph) Vis. (mi.) Weather Sky Cond. Air Dwpt Max. Min. Relative Humidity Wind Chill (°F) Heat Index (°F) altimeter (in) sea level (mb) 1 hr 3 hr 6 hr
6 hour
Temperature (ºF) Pressure Precipitation (in)